sensor_id;sensor_type;location;lat;lon;timestamp;pressure;altitude;pressure_sealevel;temperature;humidity
15405;BME280;7801;48.124;11.590;2023-09-19T00:00:39;95156.50;;;18.54;89.22
15405;BME280;7801;48.124;11.590;2023-09-19T00:03:07;95154.44;;;18.47;88.87
15405;BME280;7801;48.124;11.590;2023-09-19T00:05:36;95154.34;;;18.60;88.43
15405;BME280;7801;48.124;11.590;2023-09-19T00:08:05;95156.16;;;18.55;88.12
15405;BME280;7801;48.124;11.590;2023-09-19T00:10:33;95148.19;;;18.75;87.83
15405;BME280;7801;48.124;11.590;2023-09-19T00:13:06;95147.16;;;18.64;86.26
15405;BME280;7801;48.124;11.590;2023-09-19T00:15:50;95147.75;;;18.73;88.12
15405;BME280;7801;48.124;11.590;2023-09-19T00:18:18;95142.97;;;18.82;87.57
15405;BME280;7801;48.124;11.590;2023-09-19T00:20:49;95142.28;;;18.85;86.37
15405;BME280;7801;48.124;11.590;2023-09-19T00:23:17;95151.03;;;18.82;85.66
15405;BME280;7801;48.124;11.590;2023-09-19T00:25:43;95149.31;;;18.74;87.11
15405;BME280;7801;48.124;11.590;2023-09-19T00:28:10;95148.34;;;18.82;87.23
15405;BME280;7801;48.124;11.590;2023-09-19T00:30:35;95158.16;;;18.90;86.49
15405;BME280;7801;48.124;11.590;2023-09-19T00:33:02;95156.41;;;18.82;84.83
15405;BME280;7801;48.124;11.590;2023-09-19T00:35:32;95164.78;;;18.96;86.60
15405;BME280;7801;48.124;11.590;2023-09-19T00:38:01;95158.84;;;18.87;86.72
15405;BME280;7801;48.124;11.590;2023-09-19T00:40:28;95162.03;;;18.93;86.73
15405;BME280;7801;48.124;11.590;2023-09-19T00:42:59;95159.72;;;18.91;87.25
15405;BME280;7801;48.124;11.590;2023-09-19T00:45:32;95162.75;;;18.74;88.04
15405;BME280;7801;48.124;11.590;2023-09-19T00:48:01;95162.06;;;18.77;86.02
15405;BME280;7801;48.124;11.590;2023-09-19T00:50:41;95162.50;;;18.79;87.71
15405;BME280;7801;48.124;11.590;2023-09-19T00:53:13;95158.25;;;18.78;87.08
15405;BME280;7801;48.124;11.590;2023-09-19T00:55:40;95165.88;;;18.76;86.78
15405;BME280;7801;48.124;11.590;2023-09-19T00:58:10;95170.72;;;18.86;88.25
15405;BME280;7801;48.124;11.590;2023-09-19T01:00:36;95169.69;;;18.75;87.58
15405;BME280;7801;48.124;11.590;2023-09-19T01:03:05;95172.66;;;18.70;87.48
15405;BME280;7801;48.124;11.590;2023-09-19T01:05:38;95179.50;;;18.67;87.80
15405;BME280;7801;48.124;11.590;2023-09-19T01:08:05;95174.56;;;18.69;87.59
15405;BME280;7801;48.124;11.590;2023-09-19T01:10:33;95184.25;;;18.74;87.49
15405;BME280;7801;48.124;11.590;2023-09-19T01:13:22;95187.22;;;18.69;87.23
15405;BME280;7801;48.124;11.590;2023-09-19T01:22:16;95198.56;;;18.62;88.43
15405;BME280;7801;48.124;11.590;2023-09-19T01:25:13;95201.78;;;18.68;88.44
15405;BME280;7801;48.124;11.590;2023-09-19T01:30:58;95195.69;;;18.71;88.20
15405;BME280;7801;48.124;11.590;2023-09-19T01:36:25;95206.81;;;18.69;87.52
15405;BME280;7801;48.124;11.590;2023-09-19T01:38:53;95205.59;;;18.67;87.12
15405;BME280;7801;48.124;11.590;2023-09-19T01:41:30;95207.31;;;18.75;88.16
15405;BME280;7801;48.124;11.590;2023-09-19T01:44:01;95218.41;;;18.73;88.40
15405;BME280;7801;48.124;11.590;2023-09-19T01:46:39;95215.91;;;18.65;87.58
15405;BME280;7801;48.124;11.590;2023-09-19T01:50:21;95221.09;;;18.73;88.38
15405;BME280;7801;48.124;11.590;2023-09-19T01:52:19;95222.75;;;18.62;87.95
15405;BME280;7801;48.124;11.590;2023-09-19T01:54:51;95230.91;;;18.66;87.90
15405;BME280;7801;48.124;11.590;2023-09-19T01:57:34;95221.87;;;18.74;87.86
15405;BME280;7801;48.124;11.590;2023-09-19T02:00:09;95216.50;;;18.74;86.49
15405;BME280;7801;48.124;11.590;2023-09-19T02:02:40;95228.38;;;18.73;87.27
15405;BME280;7801;48.124;11.590;2023-09-19T02:05:10;95224.56;;;18.74;86.77
15405;BME280;7801;48.124;11.590;2023-09-19T02:07:39;95215.28;;;18.87;86.84
15405;BME280;7801;48.124;11.590;2023-09-19T02:10:08;95221.72;;;18.82;86.99
15405;BME280;7801;48.124;11.590;2023-09-19T02:12:38;95222.16;;;18.84;86.23
15405;BME280;7801;48.124;11.590;2023-09-19T02:15:05;95224.50;;;18.86;86.75
15405;BME280;7801;48.124;11.590;2023-09-19T02:17:34;95219.72;;;18.79;85.89
15405;BME280;7801;48.124;11.590;2023-09-19T02:20:05;95219.72;;;18.79;86.62
15405;BME280;7801;48.124;11.590;2023-09-19T02:22:38;95220.50;;;18.80;86.54
15405;BME280;7801;48.124;11.590;2023-09-19T02:25:05;95222.31;;;18.60;85.26
15405;BME280;7801;48.124;11.590;2023-09-19T02:27:31;95215.03;;;18.76;86.76
15405;BME280;7801;48.124;11.590;2023-09-19T02:29:57;95214.09;;;18.84;86.01
15405;BME280;7801;48.124;11.590;2023-09-19T02:32:23;95221.81;;;18.70;85.92
15405;BME280;7801;48.124;11.590;2023-09-19T02:34:51;95221.72;;;18.67;85.68
15405;BME280;7801;48.124;11.590;2023-09-19T02:37:18;95218.25;;;18.82;86.50
15405;BME280;7801;48.124;11.590;2023-09-19T02:39:49;95216.78;;;18.84;86.33
15405;BME280;7801;48.124;11.590;2023-09-19T02:42:15;95230.56;;;18.83;85.84
15405;BME280;7801;48.124;11.590;2023-09-19T02:44:42;95228.81;;;18.75;86.08
15405;BME280;7801;48.124;11.590;2023-09-19T02:47:08;95232.28;;;18.60;85.31
15405;BME280;7801;48.124;11.590;2023-09-19T02:49:36;95224.22;;;18.75;86.13
15405;BME280;7801;48.124;11.590;2023-09-19T02:52:03;95225.19;;;18.83;85.08
15405;BME280;7801;48.124;11.590;2023-09-19T02:54:29;95231.94;;;18.77;85.79
15405;BME280;7801;48.124;11.590;2023-09-19T02:56:56;95227.53;;;18.84;85.88
15405;BME280;7801;48.124;11.590;2023-09-19T02:59:22;95229.00;;;18.82;85.85
15405;BME280;7801;48.124;11.590;2023-09-19T03:01:51;95238.88;;;18.78;86.07
15405;BME280;7801;48.124;11.590;2023-09-19T03:04:18;95232.81;;;18.81;86.85
15405;BME280;7801;48.124;11.590;2023-09-19T03:06:46;95232.72;;;18.62;85.83
15405;BME280;7801;48.124;11.590;2023-09-19T03:09:12;95225.34;;;18.74;84.94
15405;BME280;7801;48.124;11.590;2023-09-19T03:11:40;95228.03;;;18.74;85.41
15405;BME280;7801;48.124;11.590;2023-09-19T03:14:08;95221.97;;;18.77;85.45
15405;BME280;7801;48.124;11.590;2023-09-19T03:16:38;95225.69;;;18.73;84.84
15405;BME280;7801;48.124;11.590;2023-09-19T03:19:03;95224.53;;;18.58;85.48
15405;BME280;7801;48.124;11.590;2023-09-19T03:21:29;95235.66;;;18.72;85.27
15405;BME280;7801;48.124;11.590;2023-09-19T03:23:58;95230.09;;;18.49;85.83
15405;BME280;7801;48.124;11.590;2023-09-19T03:26:25;95232.47;;;18.67;85.25
15405;BME280;7801;48.124;11.590;2023-09-19T03:28:53;95234.31;;;18.50;85.24
15405;BME280;7801;48.124;11.590;2023-09-19T03:31:18;95233.53;;;18.50;85.94
15405;BME280;7801;48.124;11.590;2023-09-19T03:33:45;95235.88;;;18.51;85.41
15405;BME280;7801;48.124;11.590;2023-09-19T03:36:12;95237.44;;;18.52;85.96
15405;BME280;7801;48.124;11.590;2023-09-19T03:38:38;95237.44;;;18.52;85.41
15405;BME280;7801;48.124;11.590;2023-09-19T03:41:05;95239.00;;;18.53;85.56
15405;BME280;7801;48.124;11.590;2023-09-19T03:43:32;95245.94;;;18.54;86.06
15405;BME280;7801;48.124;11.590;2023-09-19T03:46:02;95246.81;;;18.59;85.63
15405;BME280;7801;48.124;11.590;2023-09-19T03:48:30;95243.88;;;18.48;83.37
15405;BME280;7801;48.124;11.590;2023-09-19T03:50:57;95251.94;;;18.48;84.97
15405;BME280;7801;48.124;11.590;2023-09-19T03:53:24;95248.91;;;18.49;83.93
15405;BME280;7801;48.124;11.590;2023-09-19T03:55:50;95245.06;;;18.50;84.84
15405;BME280;7801;48.124;11.590;2023-09-19T03:58:18;95245.78;;;18.47;85.16
15405;BME280;7801;48.124;11.590;2023-09-19T04:00:45;95254.53;;;18.44;85.03
15405;BME280;7801;48.124;11.590;2023-09-19T04:03:11;95249.12;;;18.29;82.76
15405;BME280;7801;48.124;11.590;2023-09-19T04:05:46;95243.16;;;18.35;85.37
15405;BME280;7801;48.124;11.590;2023-09-19T04:08:14;95247.75;;;18.35;85.57
15405;BME280;7801;48.124;11.590;2023-09-19T04:10:44;95250.75;;;18.33;84.50
15405;BME280;7801;48.124;11.590;2023-09-19T04:13:11;95252.97;;;18.43;85.45
15405;BME280;7801;48.124;11.590;2023-09-19T04:15:38;95248.97;;;18.37;83.08
15405;BME280;7801;48.124;11.590;2023-09-19T04:18:07;95258.56;;;18.38;82.90
15405;BME280;7801;48.124;11.590;2023-09-19T04:20:34;95254.78;;;18.39;85.10
15405;BME280;7801;48.124;11.590;2023-09-19T04:23:03;95260.63;;;18.29;82.91
15405;BME280;7801;48.124;11.590;2023-09-19T04:25:31;95268.53;;;18.38;83.84
15405;BME280;7801;48.124;11.590;2023-09-19T04:27:58;95255.66;;;18.43;83.85
15405;BME280;7801;48.124;11.590;2023-09-19T04:30:26;95261.50;;;18.33;85.10
15405;BME280;7801;48.124;11.590;2023-09-19T04:32:52;95270.09;;;18.23;82.50
15405;BME280;7801;48.124;11.590;2023-09-19T04:35:18;95269.31;;;18.38;85.98
15405;BME280;7801;48.124;11.590;2023-09-19T04:37:45;95273.88;;;18.22;83.84
15405;BME280;7801;48.124;11.590;2023-09-19T04:40:10;95283.06;;;18.21;83.66
15405;BME280;7801;48.124;11.590;2023-09-19T04:42:40;95273.53;;;18.24;85.11
15405;BME280;7801;48.124;11.590;2023-09-19T04:45:09;95280.06;;;18.10;84.33
15405;BME280;7801;48.124;11.590;2023-09-19T04:47:38;95278.81;;;18.20;82.71
15405;BME280;7801;48.124;11.590;2023-09-19T04:50:14;95287.66;;;18.20;82.95
15405;BME280;7801;48.124;11.590;2023-09-19T04:52:44;95291.66;;;18.27;84.34
15405;BME280;7801;48.124;11.590;2023-09-19T04:55:14;95289.00;;;18.14;84.24
15405;BME280;7801;48.124;11.590;2023-09-19T04:57:57;95301.22;;;18.12;84.60
15405;BME280;7801;48.124;11.590;2023-09-19T05:00:25;95301.19;;;18.24;82.61
15405;BME280;7801;48.124;11.590;2023-09-19T05:02:57;95303.91;;;18.12;83.32
15405;BME280;7801;48.124;11.590;2023-09-19T05:05:24;95297.66;;;18.08;84.14
15405;BME280;7801;48.124;11.590;2023-09-19T05:07:52;95302.00;;;18.12;83.16
15405;BME280;7801;48.124;11.590;2023-09-19T05:10:23;95307.63;;;18.07;84.97
15405;BME280;7801;48.124;11.590;2023-09-19T05:12:54;95313.06;;;18.11;83.63
15405;BME280;7801;48.124;11.590;2023-09-19T05:15:20;95319.53;;;18.22;84.40
15405;BME280;7801;48.124;11.590;2023-09-19T05:17:52;95324.31;;;18.01;82.72
15405;BME280;7801;48.124;11.590;2023-09-19T05:20:21;95324.75;;;18.03;83.12
15405;BME280;7801;48.124;11.590;2023-09-19T05:23:05;95327.84;;;18.17;83.43
15405;BME280;7801;48.124;11.590;2023-09-19T05:25:39;95335.34;;;18.11;81.83
15405;BME280;7801;48.124;11.590;2023-09-19T05:28:10;95336.22;;;18.15;84.37
15405;BME280;7801;48.124;11.590;2023-09-19T05:30:41;95336.56;;;18.14;84.14
15405;BME280;7801;48.124;11.590;2023-09-19T05:33:10;95336.56;;;18.14;83.08
15405;BME280;7801;48.124;11.590;2023-09-19T05:35:38;95343.28;;;18.20;84.00
15405;BME280;7801;48.124;11.590;2023-09-19T05:38:06;95343.31;;;18.08;82.94
15405;BME280;7801;48.124;11.590;2023-09-19T05:40:35;95343.41;;;18.11;83.83
15405;BME280;7801;48.124;11.590;2023-09-19T05:43:03;95346.75;;;18.08;82.66
15405;BME280;7801;48.124;11.590;2023-09-19T05:45:31;95346.88;;;18.12;83.21
15405;BME280;7801;48.124;11.590;2023-09-19T05:48:07;95356.47;;;18.13;82.69
15405;BME280;7801;48.124;11.590;2023-09-19T05:50:34;95355.62;;;17.97;83.16
15405;BME280;7801;48.124;11.590;2023-09-19T05:53:00;95358.31;;;17.97;83.33
15405;BME280;7801;48.124;11.590;2023-09-19T05:55:27;95362.13;;;18.08;85.09
15405;BME280;7801;48.124;11.590;2023-09-19T05:57:55;95355.75;;;18.00;83.79
15405;BME280;7801;48.124;11.590;2023-09-19T06:00:25;95360.06;;;18.17;85.28
15405;BME280;7801;48.124;11.590;2023-09-19T06:02:57;95359.94;;;18.13;84.95
15405;BME280;7801;48.124;11.590;2023-09-19T06:05:28;95368.31;;;18.24;84.59
15405;BME280;7801;48.124;11.590;2023-09-19T06:07:55;95372.25;;;18.14;83.89
15405;BME280;7801;48.124;11.590;2023-09-19T06:10:26;95371.06;;;18.00;82.37
15405;BME280;7801;48.124;11.590;2023-09-19T06:12:53;95375.78;;;18.03;82.76
15405;BME280;7801;48.124;11.590;2023-09-19T06:15:21;95373.19;;;18.06;83.33
15405;BME280;7801;48.124;11.590;2023-09-19T06:17:54;95377.44;;;18.07;83.20
15405;BME280;7801;48.124;11.590;2023-09-19T06:20:23;95374.37;;;18.09;82.84
15405;BME280;7801;48.124;11.590;2023-09-19T06:22:50;95379.75;;;18.21;82.83
15405;BME280;7801;48.124;11.590;2023-09-19T06:25:17;95373.72;;;18.12;81.99
15405;BME280;7801;48.124;11.590;2023-09-19T06:27:49;95380.47;;;17.94;81.92
15405;BME280;7801;48.124;11.590;2023-09-19T06:30:21;95383.16;;;18.06;81.89
15405;BME280;7801;48.124;11.590;2023-09-19T06:32:56;95380.47;;;18.06;82.17
15405;BME280;7801;48.124;11.590;2023-09-19T06:35:24;95377.78;;;18.06;82.01
15405;BME280;7801;48.124;11.590;2023-09-19T06:37:53;95381.91;;;18.03;82.95
15405;BME280;7801;48.124;11.590;2023-09-19T06:40:18;95378.91;;;18.05;82.01
15405;BME280;7801;48.124;11.590;2023-09-19T06:42:49;95378.91;;;18.05;82.04
15405;BME280;7801;48.124;11.590;2023-09-19T06:45:18;95390.97;;;17.99;82.71
15405;BME280;7801;48.124;11.590;2023-09-19T06:47:50;95384.47;;;18.12;82.21
15405;BME280;7801;48.124;11.590;2023-09-19T06:50:21;95394.91;;;18.01;82.04
15405;BME280;7801;48.124;11.590;2023-09-19T06:52:49;95399.72;;;17.96;82.59
15405;BME280;7801;48.124;11.590;2023-09-19T06:55:19;95398.03;;;18.03;82.39
15405;BME280;7801;48.124;11.590;2023-09-19T06:57:51;95400.03;;;17.94;82.56
15405;BME280;7801;48.124;11.590;2023-09-19T07:00:21;95406.19;;;17.95;82.62
15405;BME280;7801;48.124;11.590;2023-09-19T07:03:02;95406.97;;;17.95;82.99
15405;BME280;7801;48.124;11.590;2023-09-19T07:05:34;95400.03;;;17.94;83.17
15405;BME280;7801;48.124;11.590;2023-09-19T07:08:06;95409.09;;;18.02;82.62
15405;BME280;7801;48.124;11.590;2023-09-19T07:10:33;95410.00;;;18.06;82.60
15405;BME280;7801;48.124;11.590;2023-09-19T07:13:06;95402.69;;;18.18;82.63
15405;BME280;7801;48.124;11.590;2023-09-19T07:15:35;95406.72;;;18.12;81.69
15405;BME280;7801;48.124;11.590;2023-09-19T07:18:06;95422.28;;;18.19;81.96
15405;BME280;7801;48.124;11.590;2023-09-19T07:20:37;95416.00;;;18.15;81.92
15405;BME280;7801;48.124;11.590;2023-09-19T07:23:03;95418.72;;;18.03;81.93
15405;BME280;7801;48.124;11.590;2023-09-19T07:25:30;95425.53;;;18.12;82.57
15405;BME280;7801;48.124;11.590;2023-09-19T07:27:58;95420.72;;;18.18;82.63
15405;BME280;7801;48.124;11.590;2023-09-19T07:30:30;95424.47;;;18.29;82.34
15405;BME280;7801;48.124;11.590;2023-09-19T07:32:57;95433.63;;;18.40;81.91
15405;BME280;7801;48.124;11.590;2023-09-19T07:35:27;95424.84;;;18.28;81.84
15405;BME280;7801;48.124;11.590;2023-09-19T07:37:53;95432.78;;;18.24;82.24
15405;BME280;7801;48.124;11.590;2023-09-19T07:40:21;95434.09;;;18.30;82.38
15405;BME280;7801;48.124;11.590;2023-09-19T07:42:48;95430.16;;;18.40;82.55
15405;BME280;7801;48.124;11.590;2023-09-19T07:45:15;95431.41;;;18.42;83.39
15405;BME280;7801;48.124;11.590;2023-09-19T07:47:46;95430.50;;;18.38;82.20
15405;BME280;7801;48.124;11.590;2023-09-19T07:50:15;95419.28;;;18.48;82.78
15405;BME280;7801;48.124;11.590;2023-09-19T07:52:46;95417.03;;;18.50;81.75
15405;BME280;7801;48.124;11.590;2023-09-19T07:55:12;95428.31;;;18.56;82.52
15405;BME280;7801;48.124;11.590;2023-09-19T07:57:55;95431.94;;;18.48;82.41
15405;BME280;7801;48.124;11.590;2023-09-19T08:00:23;95429.44;;;18.55;82.15
15405;BME280;7801;48.124;11.590;2023-09-19T08:02:48;95431.53;;;18.74;81.53
15405;BME280;7801;48.124;11.590;2023-09-19T08:05:19;95431.62;;;18.77;82.04
15405;BME280;7801;48.124;11.590;2023-09-19T08:07:50;95436.91;;;18.74;82.22
15405;BME280;7801;48.124;11.590;2023-09-19T08:10:16;95433.84;;;18.87;81.69
15405;BME280;7801;48.124;11.590;2023-09-19T08:12:47;95444.69;;;18.91;81.86
15405;BME280;7801;48.124;11.590;2023-09-19T08:15:19;95438.59;;;18.94;80.71
15405;BME280;7801;48.124;11.590;2023-09-19T08:17:46;95437.47;;;18.95;80.99
15405;BME280;7801;48.124;11.590;2023-09-19T08:20:13;95439.31;;;18.91;81.20
15405;BME280;7801;48.124;11.590;2023-09-19T08:22:49;95435.09;;;19.06;81.49
15405;BME280;7801;48.124;11.590;2023-09-19T08:25:23;95436.69;;;19.22;80.87
15405;BME280;7801;48.124;11.590;2023-09-19T08:27:51;95433.75;;;19.28;79.87
15405;BME280;7801;48.124;11.590;2023-09-19T08:30:19;95429.50;;;19.27;80.38
15405;BME280;7801;48.124;11.590;2023-09-19T08:33:00;95438.94;;;19.20;79.36
15405;BME280;7801;48.124;11.590;2023-09-19T08:35:27;95443.25;;;19.09;79.44
15405;BME280;7801;48.124;11.590;2023-09-19T08:37:56;95443.44;;;19.16;80.04
15405;BME280;7801;48.124;11.590;2023-09-19T08:40:23;95429.03;;;19.25;79.47
15405;BME280;7801;48.124;11.590;2023-09-19T08:42:55;95441.47;;;19.29;79.12
15405;BME280;7801;48.124;11.590;2023-09-19T08:45:24;95434.53;;;19.28;79.23
15405;BME280;7801;48.124;11.590;2023-09-19T08:48:23;95429.16;;;19.28;80.07
15405;BME280;7801;48.124;11.590;2023-09-19T08:51:45;95436.19;;;19.33;78.04
15405;BME280;7801;48.124;11.590;2023-09-19T08:54:22;95436.09;;;19.29;76.86
15405;BME280;7801;48.124;11.590;2023-09-19T08:56:58;95442.16;;;19.26;76.56
15405;BME280;7801;48.124;11.590;2023-09-19T08:59:32;95439.28;;;19.35;76.86
15405;BME280;7801;48.124;11.590;2023-09-19T09:02:02;95438.09;;;19.48;76.48
15405;BME280;7801;48.124;11.590;2023-09-19T09:04:32;95441.84;;;19.59;77.02
15405;BME280;7801;48.124;11.590;2023-09-19T09:07:04;95440.47;;;19.65;76.15
15405;BME280;7801;48.124;11.590;2023-09-19T09:09:31;95446.62;;;19.66;74.83
15405;BME280;7801;48.124;11.590;2023-09-19T09:12:02;95444.81;;;19.70;74.63
15405;BME280;7801;48.124;11.590;2023-09-19T09:14:29;95448.00;;;19.75;74.83
15405;BME280;7801;48.124;11.590;2023-09-19T09:16:55;95451.66;;;19.67;74.91
15405;BME280;7801;48.124;11.590;2023-09-19T09:19:26;95460.00;;;19.62;76.21
15405;BME280;7801;48.124;11.590;2023-09-19T09:21:51;95460.00;;;19.62;74.47
15405;BME280;7801;48.124;11.590;2023-09-19T09:24:28;95455.94;;;19.52;74.45
15405;BME280;7801;48.124;11.590;2023-09-19T09:26:56;95465.63;;;19.57;74.52
15405;BME280;7801;48.124;11.590;2023-09-19T09:29:51;95466.56;;;19.49;73.99
15405;BME280;7801;48.124;11.590;2023-09-19T09:32:40;95458.50;;;19.49;73.59
15405;BME280;7801;48.124;11.590;2023-09-19T09:35:08;95460.53;;;19.52;73.67
15405;BME280;7801;48.124;11.590;2023-09-19T09:37:46;95457.75;;;19.64;72.62
15405;BME280;7801;48.124;11.590;2023-09-19T09:40:14;95445.69;;;19.74;72.13
15405;BME280;7801;48.124;11.590;2023-09-19T09:42:39;95450.28;;;19.89;72.09
15405;BME280;7801;48.124;11.590;2023-09-19T09:47:42;95458.06;;;20.10;70.37
15405;BME280;7801;48.124;11.590;2023-09-19T09:50:11;95458.37;;;20.24;69.77
15405;BME280;7801;48.124;11.590;2023-09-19T09:52:45;95449.59;;;20.27;68.07
15405;BME280;7801;48.124;11.590;2023-09-19T09:55:11;95447.84;;;20.35;67.91
15405;BME280;7801;48.124;11.590;2023-09-19T09:57:38;95464.25;;;20.45;68.37
15405;BME280;7801;48.124;11.590;2023-09-19T10:00:11;95462.41;;;20.49;68.82
15405;BME280;7801;48.124;11.590;2023-09-19T10:02:36;95452.69;;;20.45;67.38
15405;BME280;7801;48.124;11.590;2023-09-19T10:07:53;95448.78;;;20.42;67.11
15405;BME280;7801;48.124;11.590;2023-09-19T10:10:38;95452.19;;;20.58;66.90
15405;BME280;7801;48.124;11.590;2023-09-19T10:13:19;95454.28;;;20.65;67.56
15405;BME280;7801;48.124;11.590;2023-09-19T10:15:51;95454.62;;;20.83;68.10
15405;BME280;7801;48.124;11.590;2023-09-19T10:18:23;95457.13;;;20.91;67.14
15405;BME280;7801;48.124;11.590;2023-09-19T10:20:49;95459.75;;;20.88;67.39
15405;BME280;7801;48.124;11.590;2023-09-19T10:23:22;95459.13;;;20.75;66.57
15405;BME280;7801;48.124;11.590;2023-09-19T10:25:49;95472.00;;;20.85;66.06
15405;BME280;7801;48.124;11.590;2023-09-19T10:28:19;95463.41;;;20.80;65.89
15405;BME280;7801;48.124;11.590;2023-09-19T10:30:49;95454.50;;;20.76;66.05
15405;BME280;7801;48.124;11.590;2023-09-19T10:33:22;95459.91;;;20.76;67.11
15405;BME280;7801;48.124;11.590;2023-09-19T10:35:50;95457.47;;;20.71;67.39
15405;BME280;7801;48.124;11.590;2023-09-19T10:38:29;95455.75;;;20.82;65.70
15405;BME280;7801;48.124;11.590;2023-09-19T10:40:59;95469.47;;;20.73;66.15
15405;BME280;7801;48.124;11.590;2023-09-19T10:43:32;95472.87;;;20.70;67.41
15405;BME280;7801;48.124;11.590;2023-09-19T10:46:16;95469.81;;;20.72;67.03
15405;BME280;7801;48.124;11.590;2023-09-19T10:48:43;95466.84;;;20.77;66.77
15405;BME280;7801;48.124;11.590;2023-09-19T10:51:22;95479.41;;;20.88;67.89
15405;BME280;7801;48.124;11.590;2023-09-19T10:54:06;95468.75;;;20.76;65.71
15405;BME280;7801;48.124;11.590;2023-09-19T10:56:38;95475.78;;;20.81;66.06
15405;BME280;7801;48.124;11.590;2023-09-19T10:59:08;95465.84;;;20.85;66.78
15405;BME280;7801;48.124;11.590;2023-09-19T11:01:45;95474.00;;;20.69;67.61
15405;BME280;7801;48.124;11.590;2023-09-19T11:04:36;95467.13;;;20.72;67.92
15405;BME280;7801;48.124;11.590;2023-09-19T11:07:14;95459.03;;;20.72;68.31
15405;BME280;7801;48.124;11.590;2023-09-19T11:09:44;95467.69;;;20.62;68.44
15405;BME280;7801;48.124;11.590;2023-09-19T11:15:03;95464.69;;;20.47;69.40
15405;BME280;7801;48.124;11.590;2023-09-19T11:17:51;95467.91;;;20.37;69.21
15405;BME280;7801;48.124;11.590;2023-09-19T11:20:20;95465.31;;;20.25;68.95
15405;BME280;7801;48.124;11.590;2023-09-19T11:25:43;95467.75;;;20.30;67.73
15405;BME280;7801;48.124;11.590;2023-09-19T11:30:54;95462.75;;;20.13;68.20
15405;BME280;7801;48.124;11.590;2023-09-19T11:36:06;95456.81;;;20.23;66.59
15405;BME280;7801;48.124;11.590;2023-09-19T11:46:59;95461.03;;;20.40;63.73
15405;BME280;7801;48.124;11.590;2023-09-19T11:49:30;95459.28;;;20.47;62.69
15405;BME280;7801;48.124;11.590;2023-09-19T11:51:57;95460.72;;;20.61;62.50
15405;BME280;7801;48.124;11.590;2023-09-19T11:54:28;95456.41;;;20.56;61.24
15405;BME280;7801;48.124;11.590;2023-09-19T11:56:57;95456.88;;;20.62;60.38
15405;BME280;7801;48.124;11.590;2023-09-19T11:59:29;95462.44;;;20.69;58.48
15405;BME280;7801;48.124;11.590;2023-09-19T12:02:01;95461.03;;;20.75;62.99
15405;BME280;7801;48.124;11.590;2023-09-19T12:04:43;95464.44;;;20.72;60.02
15405;BME280;7801;48.124;11.590;2023-09-19T12:07:15;95449.59;;;20.81;61.40
15405;BME280;7801;48.124;11.590;2023-09-19T12:09:46;95460.88;;;20.87;60.63
15405;BME280;7801;48.124;11.590;2023-09-19T12:12:19;95455.69;;;20.98;60.67
15405;BME280;7801;48.124;11.590;2023-09-19T12:14:49;95447.78;;;21.08;62.59
15405;BME280;7801;48.124;11.590;2023-09-19T12:17:36;95452.06;;;21.09;61.54
15405;BME280;7801;48.124;11.590;2023-09-19T12:20:02;95444.88;;;21.17;62.50
15405;BME280;7801;48.124;11.590;2023-09-19T12:22:54;95448.09;;;21.22;61.04
15405;BME280;7801;48.124;11.590;2023-09-19T12:25:20;95452.34;;;21.23;61.54
15405;BME280;7801;48.124;11.590;2023-09-19T12:27:49;95443.97;;;21.29;62.00
15405;BME280;7801;48.124;11.590;2023-09-19T12:30:27;95453.56;;;21.26;60.49
15405;BME280;7801;48.124;11.590;2023-09-19T12:32:57;95441.41;;;21.36;60.18
15405;BME280;7801;48.124;11.590;2023-09-19T12:35:32;95449.78;;;21.31;59.80
15405;BME280;7801;48.124;11.590;2023-09-19T12:38:01;95451.63;;;21.26;60.30
15405;BME280;7801;48.124;11.590;2023-09-19T12:40:40;95445.31;;;21.19;59.08
15405;BME280;7801;48.124;11.590;2023-09-19T12:43:08;95438.00;;;21.19;59.77
15405;BME280;7801;48.124;11.590;2023-09-19T12:45:36;95437.00;;;21.27;59.78
15405;BME280;7801;48.124;11.590;2023-09-19T12:48:25;95445.59;;;21.33;58.80
15405;BME280;7801;48.124;11.590;2023-09-19T12:53:39;95435.09;;;21.28;59.36
15405;BME280;7801;48.124;11.590;2023-09-19T12:56:14;95432.44;;;21.32;59.14
15405;BME280;7801;48.124;11.590;2023-09-19T12:58:54;95438.00;;;21.19;59.59
15405;BME280;7801;48.124;11.590;2023-09-19T13:01:19;95437.63;;;21.21;60.29
15405;BME280;7801;48.124;11.590;2023-09-19T13:03:45;95434.94;;;21.21;61.22
15405;BME280;7801;48.124;11.590;2023-09-19T13:06:11;95431.09;;;21.22;62.16
15405;BME280;7801;48.124;11.590;2023-09-19T13:08:37;95428.06;;;21.23;62.61
15405;BME280;7801;48.124;11.590;2023-09-19T13:13:38;95425.63;;;21.38;60.96
15405;BME280;7801;48.124;11.590;2023-09-19T13:16:05;95417.22;;;21.43;61.06
15405;BME280;7801;48.124;11.590;2023-09-19T13:18:51;95414.50;;;21.43;62.23
15405;BME280;7801;48.124;11.590;2023-09-19T13:21:39;95421.47;;;21.44;63.35
15405;BME280;7801;48.124;11.590;2023-09-19T13:24:24;95422.88;;;21.57;62.41
15405;BME280;7801;48.124;11.590;2023-09-19T13:26:56;95416.19;;;21.51;62.58
15405;BME280;7801;48.124;11.590;2023-09-19T13:31:52;95406.97;;;21.52;61.29
15405;BME280;7801;48.124;11.590;2023-09-19T13:34:20;95402.94;;;21.42;61.95
15405;BME280;7801;48.124;11.590;2023-09-19T13:36:47;95402.09;;;21.38;63.24
15405;BME280;7801;48.124;11.590;2023-09-19T13:39:17;95398.94;;;21.33;62.29
15405;BME280;7801;48.124;11.590;2023-09-19T13:41:48;95401.19;;;21.31;63.54
15405;BME280;7801;48.124;11.590;2023-09-19T13:44:14;95396.94;;;21.30;63.12
15405;BME280;7801;48.124;11.590;2023-09-19T13:46:45;95402.03;;;21.35;64.70
15405;BME280;7801;48.124;11.590;2023-09-19T13:49:16;95396.66;;;21.35;62.76
15405;BME280;7801;48.124;11.590;2023-09-19T13:51:43;95395.16;;;21.37;63.49
15405;BME280;7801;48.124;11.590;2023-09-19T13:54:09;95398.16;;;21.32;64.13
15405;BME280;7801;48.124;11.590;2023-09-19T13:56:37;95391.97;;;21.32;64.25
15405;BME280;7801;48.124;11.590;2023-09-19T13:59:02;95395.09;;;21.34;62.75
15405;BME280;7801;48.124;11.590;2023-09-19T14:01:28;95403.28;;;21.41;60.65
15405;BME280;7801;48.124;11.590;2023-09-19T14:03:54;95398.66;;;21.41;60.50